sensor_id;sensor_type;location;lat;lon;timestamp;pressure;altitude;pressure_sealevel;temperature;humidity
56038;BME280;41907;47.848;9.000;2023-05-02T00:02:05;95926.28;;;9.25;100.00
56038;BME280;41907;47.848;9.000;2023-05-02T00:04:31;95920.19;;;9.24;100.00
56038;BME280;41907;47.848;9.000;2023-05-02T00:06:56;95918.63;;;9.23;100.00
56038;BME280;41907;47.848;9.000;2023-05-02T00:09:22;95920.31;;;9.33;100.00
56038;BME280;41907;47.848;9.000;2023-05-02T00:11:47;95909.84;;;9.37;100.00
56038;BME280;41907;47.848;9.000;2023-05-02T00:14:12;95904.72;;;9.40;100.00
56038;BME280;41907;47.848;9.000;2023-05-02T00:16:37;95908.75;;;9.38;100.00
56038;BME280;41907;47.848;9.000;2023-05-02T00:19:03;95901.56;;;9.38;100.00
56038;BME280;41907;47.848;9.000;2023-05-02T00:21:28;95906.38;;;9.36;100.00
56038;BME280;41907;47.848;9.000;2023-05-02T00:23:54;95900.88;;;9.32;100.00
56038;BME280;41907;47.848;9.000;2023-05-02T00:26:21;95900.38;;;9.30;100.00
56038;BME280;41907;47.848;9.000;2023-05-02T00:28:46;95901.75;;;9.28;100.00
56038;BME280;41907;47.848;9.000;2023-05-02T00:31:11;95904.81;;;9.21;100.00
56038;BME280;41907;47.848;9.000;2023-05-02T00:33:36;95901.94;;;9.18;100.00
56038;BME280;41907;47.848;9.000;2023-05-02T00:36:02;95909.22;;;9.12;100.00
56038;BME280;41907;47.848;9.000;2023-05-02T00:38:27;95906.84;;;9.11;100.00
56038;BME280;41907;47.848;9.000;2023-05-02T00:40:52;95900.53;;;9.07;100.00
56038;BME280;41907;47.848;9.000;2023-05-02T00:43:17;95894.22;;;9.03;100.00
56038;BME280;41907;47.848;9.000;2023-05-02T00:45:43;95900.91;;;9.00;100.00
56038;BME280;41907;47.848;9.000;2023-05-02T00:48:09;95896.97;;;8.98;100.00
56038;BME280;41907;47.848;9.000;2023-05-02T00:50:39;95902.00;;;8.99;100.00
56038;BME280;41907;47.848;9.000;2023-05-02T00:53:04;95896.19;;;8.97;100.00
56038;BME280;41907;47.848;9.000;2023-05-02T00:55:31;95896.28;;;8.92;100.00
56038;BME280;41907;47.848;9.000;2023-05-02T00:57:57;95892.59;;;8.88;100.00
56038;BME280;41907;47.848;9.000;2023-05-02T01:00:23;95893.91;;;8.90;100.00
56038;BME280;41907;47.848;9.000;2023-05-02T01:02:57;95896.56;;;8.90;100.00
56038;BME280;41907;47.848;9.000;2023-05-02T01:05:24;95899.81;;;8.87;100.00
56038;BME280;41907;47.848;9.000;2023-05-02T01:08:07;95900.31;;;8.89;100.00
56038;BME280;41907;47.848;9.000;2023-05-02T01:10:45;95907.00;;;8.87;100.00
56038;BME280;41907;47.848;9.000;2023-05-02T01:16:06;95894.69;;;8.91;100.00
56038;BME280;41907;47.848;9.000;2023-05-02T01:18:34;95903.19;;;8.93;100.00
56038;BME280;41907;47.848;9.000;2023-05-02T01:21:02;95908.69;;;8.96;100.00
56038;BME280;41907;47.848;9.000;2023-05-02T01:28:54;95910.38;;;9.06;100.00
56038;BME280;41907;47.848;9.000;2023-05-02T01:31:19;95914.34;;;9.09;100.00
56038;BME280;41907;47.848;9.000;2023-05-02T01:33:46;95908.22;;;9.08;100.00
56038;BME280;41907;47.848;9.000;2023-05-02T01:36:12;95905.78;;;9.12;100.00
56038;BME280;41907;47.848;9.000;2023-05-02T01:38:38;95914.56;;;9.12;100.00
56038;BME280;41907;47.848;9.000;2023-05-02T01:41:04;95920.44;;;9.09;100.00
56038;BME280;41907;47.848;9.000;2023-05-02T01:43:31;95919.59;;;9.14;100.00
56038;BME280;41907;47.848;9.000;2023-05-02T01:45:58;95921.03;;;9.06;100.00
56038;BME280;41907;47.848;9.000;2023-05-02T01:48:24;95923.22;;;9.18;100.00
56038;BME280;41907;47.848;9.000;2023-05-02T01:50:52;95927.84;;;9.12;100.00
56038;BME280;41907;47.848;9.000;2023-05-02T01:53:18;95925.19;;;9.12;100.00
56038;BME280;41907;47.848;9.000;2023-05-02T01:55:46;95932.28;;;9.17;100.00
56038;BME280;41907;47.848;9.000;2023-05-02T01:58:13;95927.69;;;9.22;100.00
56038;BME280;41907;47.848;9.000;2023-05-02T02:00:39;95933.78;;;9.23;100.00
56038;BME280;41907;47.848;9.000;2023-05-02T02:03:05;95923.94;;;9.23;100.00
56038;BME280;41907;47.848;9.000;2023-05-02T02:05:32;95935.66;;;9.22;100.00
56038;BME280;41907;47.848;9.000;2023-05-02T02:07:58;95929.25;;;9.23;100.00
56038;BME280;41907;47.848;9.000;2023-05-02T02:10:24;95930.22;;;9.27;100.00
56038;BME280;41907;47.848;9.000;2023-05-02T02:12:51;95928.56;;;9.31;100.00
56038;BME280;41907;47.848;9.000;2023-05-02T02:15:18;95935.38;;;9.38;100.00
56038;BME280;41907;47.848;9.000;2023-05-02T02:17:47;95938.25;;;9.41;100.00
56038;BME280;41907;47.848;9.000;2023-05-02T02:20:13;95933.22;;;9.40;100.00
56038;BME280;41907;47.848;9.000;2023-05-02T02:22:40;95941.19;;;9.40;100.00
56038;BME280;41907;47.848;9.000;2023-05-02T02:25:07;95942.28;;;9.39;100.00
56038;BME280;41907;47.848;9.000;2023-05-02T02:27:34;95934.59;;;9.23;100.00
56038;BME280;41907;47.848;9.000;2023-05-02T02:30:00;95938.59;;;9.21;100.00
56038;BME280;41907;47.848;9.000;2023-05-02T02:32:25;95948.34;;;9.25;100.00
56038;BME280;41907;47.848;9.000;2023-05-02T02:34:50;95939.50;;;9.30;100.00
56038;BME280;41907;47.848;9.000;2023-05-02T02:42:09;95946.81;;;9.38;100.00
56038;BME280;41907;47.848;9.000;2023-05-02T02:52:13;95945.03;;;9.33;100.00
56038;BME280;41907;47.848;9.000;2023-05-02T02:54:45;95954.19;;;9.27;100.00
56038;BME280;41907;47.848;9.000;2023-05-02T02:57:25;95950.72;;;9.27;100.00
56038;BME280;41907;47.848;9.000;2023-05-02T03:00:00;95951.22;;;9.29;100.00
56038;BME280;41907;47.848;9.000;2023-05-02T03:02:27;95946.41;;;9.31;100.00
56038;BME280;41907;47.848;9.000;2023-05-02T03:04:54;95954.09;;;9.32;100.00
56038;BME280;41907;47.848;9.000;2023-05-02T03:07:21;95950.78;;;9.41;100.00
56038;BME280;41907;47.848;9.000;2023-05-02T03:09:46;95948.69;;;9.38;100.00
56038;BME280;41907;47.848;9.000;2023-05-02T03:12:12;95948.09;;;9.41;100.00
56038;BME280;41907;47.848;9.000;2023-05-02T03:14:38;95954.50;;;9.40;100.00
56038;BME280;41907;47.848;9.000;2023-05-02T03:17:03;95952.25;;;9.33;100.00
56038;BME280;41907;47.848;9.000;2023-05-02T03:19:28;95958.81;;;9.36;100.00
56038;BME280;41907;47.848;9.000;2023-05-02T03:21:54;95951.06;;;9.39;100.00
56038;BME280;41907;47.848;9.000;2023-05-02T03:24:19;95961.19;;;9.37;100.00
56038;BME280;41907;47.848;9.000;2023-05-02T03:26:44;95956.09;;;9.41;100.00
56038;BME280;41907;47.848;9.000;2023-05-02T03:29:11;95963.28;;;9.40;100.00
56038;BME280;41907;47.848;9.000;2023-05-02T03:31:36;95961.31;;;9.46;100.00
56038;BME280;41907;47.848;9.000;2023-05-02T03:34:02;95965.25;;;9.48;100.00
56038;BME280;41907;47.848;9.000;2023-05-02T03:36:27;95963.69;;;9.47;100.00
56038;BME280;41907;47.848;9.000;2023-05-02T03:38:52;95966.34;;;9.47;100.00
56038;BME280;41907;47.848;9.000;2023-05-02T03:41:17;95970.09;;;9.46;100.00
56038;BME280;41907;47.848;9.000;2023-05-02T03:43:44;95977.88;;;9.43;100.00
56038;BME280;41907;47.848;9.000;2023-05-02T03:46:10;95974.44;;;9.42;100.00
56038;BME280;41907;47.848;9.000;2023-05-02T03:48:36;95977.69;;;9.39;100.00
56038;BME280;41907;47.848;9.000;2023-05-02T03:51:01;95976.88;;;9.39;100.00
56038;BME280;41907;47.848;9.000;2023-05-02T03:53:27;95975.00;;;9.39;100.00
56038;BME280;41907;47.848;9.000;2023-05-02T03:55:53;95975.59;;;9.36;100.00
56038;BME280;41907;47.848;9.000;2023-05-02T03:58:18;95982.31;;;9.33;100.00
56038;BME280;41907;47.848;9.000;2023-05-02T04:00:43;95983.19;;;9.29;100.00
56038;BME280;41907;47.848;9.000;2023-05-02T04:03:09;95981.97;;;9.21;100.00
56038;BME280;41907;47.848;9.000;2023-05-02T04:05:34;95987.09;;;9.18;100.00
56038;BME280;41907;47.848;9.000;2023-05-02T04:08:00;95994.00;;;9.19;100.00
56038;BME280;41907;47.848;9.000;2023-05-02T04:10:25;95994.28;;;9.17;100.00
56038;BME280;41907;47.848;9.000;2023-05-02T04:12:50;96000.69;;;9.16;100.00
56038;BME280;41907;47.848;9.000;2023-05-02T04:15:15;96006.00;;;9.16;100.00
56038;BME280;41907;47.848;9.000;2023-05-02T04:17:40;96007.06;;;9.15;100.00
56038;BME280;41907;47.848;9.000;2023-05-02T04:20:06;96008.38;;;9.18;100.00
56038;BME280;41907;47.848;9.000;2023-05-02T04:22:32;96008.88;;;9.20;100.00
56038;BME280;41907;47.848;9.000;2023-05-02T04:24:57;96007.59;;;9.17;100.00
56038;BME280;41907;47.848;9.000;2023-05-02T04:27:22;96013.97;;;9.16;100.00
56038;BME280;41907;47.848;9.000;2023-05-02T04:29:48;96016.16;;;9.14;100.00
56038;BME280;41907;47.848;9.000;2023-05-02T04:32:14;96006.50;;;9.18;100.00
56038;BME280;41907;47.848;9.000;2023-05-02T04:34:39;96013.50;;;9.14;100.00
56038;BME280;41907;47.848;9.000;2023-05-02T04:37:04;96021.78;;;9.13;100.00
56038;BME280;41907;47.848;9.000;2023-05-02T04:39:30;96020.69;;;9.14;100.00
56038;BME280;41907;47.848;9.000;2023-05-02T04:41:55;96031.81;;;9.16;100.00
56038;BME280;41907;47.848;9.000;2023-05-02T04:44:20;96033.50;;;9.12;100.00
56038;BME280;41907;47.848;9.000;2023-05-02T04:46:45;96034.88;;;8.90;100.00
56038;BME280;41907;47.848;9.000;2023-05-02T04:49:11;96033.00;;;8.91;100.00
56038;BME280;41907;47.848;9.000;2023-05-02T04:51:36;96046.16;;;9.01;100.00
56038;BME280;41907;47.848;9.000;2023-05-02T04:54:01;96051.09;;;9.08;100.00
56038;BME280;41907;47.848;9.000;2023-05-02T04:56:27;96054.97;;;9.15;100.00
56038;BME280;41907;47.848;9.000;2023-05-02T04:58:52;96056.88;;;9.15;100.00
56038;BME280;41907;47.848;9.000;2023-05-02T05:01:17;96061.28;;;9.06;100.00
56038;BME280;41907;47.848;9.000;2023-05-02T05:03:43;96060.13;;;8.93;100.00
56038;BME280;41907;47.848;9.000;2023-05-02T05:06:08;96059.75;;;9.00;100.00
56038;BME280;41907;47.848;9.000;2023-05-02T05:08:33;96064.00;;;9.01;100.00
56038;BME280;41907;47.848;9.000;2023-05-02T05:10:58;96071.59;;;9.07;100.00
56038;BME280;41907;47.848;9.000;2023-05-02T05:13:24;96065.13;;;9.13;100.00
56038;BME280;41907;47.848;9.000;2023-05-02T05:15:49;96074.34;;;9.21;100.00
56038;BME280;41907;47.848;9.000;2023-05-02T05:18:15;96078.19;;;9.28;100.00
56038;BME280;41907;47.848;9.000;2023-05-02T05:20:40;96086.59;;;9.36;100.00
56038;BME280;41907;47.848;9.000;2023-05-02T05:23:05;96083.38;;;9.39;100.00
56038;BME280;41907;47.848;9.000;2023-05-02T05:25:31;96079.63;;;9.40;100.00
56038;BME280;41907;47.848;9.000;2023-05-02T05:27:58;96075.78;;;9.46;100.00
56038;BME280;41907;47.848;9.000;2023-05-02T05:30:23;96080.03;;;9.47;100.00
56038;BME280;41907;47.848;9.000;2023-05-02T05:32:49;96085.44;;;9.42;100.00
56038;BME280;41907;47.848;9.000;2023-05-02T05:35:14;96087.22;;;9.46;100.00
56038;BME280;41907;47.848;9.000;2023-05-02T05:37:40;96088.81;;;9.47;100.00
56038;BME280;41907;47.848;9.000;2023-05-02T05:40:06;96088.81;;;9.47;100.00
56038;BME280;41907;47.848;9.000;2023-05-02T05:42:31;96091.69;;;9.51;100.00
56038;BME280;41907;47.848;9.000;2023-05-02T05:44:56;96093.06;;;9.48;100.00
56038;BME280;41907;47.848;9.000;2023-05-02T05:47:21;96095.72;;;9.48;100.00
56038;BME280;41907;47.848;9.000;2023-05-02T05:49:47;96099.75;;;9.46;100.00
56038;BME280;41907;47.848;9.000;2023-05-02T05:52:16;96099.47;;;9.47;100.00
56038;BME280;41907;47.848;9.000;2023-05-02T05:54:41;96109.44;;;9.55;100.00
56038;BME280;41907;47.848;9.000;2023-05-02T05:57:06;96106.78;;;9.55;100.00
56038;BME280;41907;47.848;9.000;2023-05-02T05:59:33;96108.88;;;9.58;100.00
56038;BME280;41907;47.848;9.000;2023-05-02T06:01:58;96104.75;;;9.66;100.00
56038;BME280;41907;47.848;9.000;2023-05-02T06:04:24;96116.25;;;9.80;100.00
56038;BME280;41907;47.848;9.000;2023-05-02T06:06:49;96115.06;;;9.86;100.00
56038;BME280;41907;47.848;9.000;2023-05-02T06:09:15;96106.56;;;9.84;100.00
56038;BME280;41907;47.848;9.000;2023-05-02T06:11:40;96117.75;;;10.00;100.00
56038;BME280;41907;47.848;9.000;2023-05-02T06:14:05;96113.13;;;10.05;100.00
56038;BME280;41907;47.848;9.000;2023-05-02T06:16:31;96107.09;;;10.14;100.00
56038;BME280;41907;47.848;9.000;2023-05-02T06:18:56;96115.03;;;10.19;100.00
56038;BME280;41907;47.848;9.000;2023-05-02T06:21:21;96114.44;;;10.22;100.00
56038;BME280;41907;47.848;9.000;2023-05-02T06:23:46;96118.47;;;10.19;100.00
56038;BME280;41907;47.848;9.000;2023-05-02T06:26:12;96112.94;;;10.29;100.00
56038;BME280;41907;47.848;9.000;2023-05-02T06:28:37;96110.59;;;10.28;100.00
56038;BME280;41907;47.848;9.000;2023-05-02T06:31:03;96118.50;;;10.33;100.00
56038;BME280;41907;47.848;9.000;2023-05-02T06:33:29;96119.19;;;10.38;100.00
56038;BME280;41907;47.848;9.000;2023-05-02T06:35:55;96122.25;;;10.46;100.00
56038;BME280;41907;47.848;9.000;2023-05-02T06:38:21;96129.75;;;10.57;100.00
56038;BME280;41907;47.848;9.000;2023-05-02T06:40:46;96127.38;;;10.69;100.00
56038;BME280;41907;47.848;9.000;2023-05-02T06:43:12;96128.75;;;10.80;100.00
56038;BME280;41907;47.848;9.000;2023-05-02T06:45:37;96132.72;;;10.83;100.00
56038;BME280;41907;47.848;9.000;2023-05-02T06:48:03;96131.41;;;10.80;100.00
56038;BME280;41907;47.848;9.000;2023-05-02T06:50:28;96133.53;;;11.06;100.00
56038;BME280;41907;47.848;9.000;2023-05-02T06:52:54;96139.94;;;11.18;100.00
56038;BME280;41907;47.848;9.000;2023-05-02T06:55:19;96142.19;;;11.25;100.00
56038;BME280;41907;47.848;9.000;2023-05-02T06:57:45;96127.19;;;11.15;100.00
56038;BME280;41907;47.848;9.000;2023-05-02T07:00:10;96138.00;;;10.97;100.00
56038;BME280;41907;47.848;9.000;2023-05-02T07:02:36;96142.13;;;11.16;100.00
56038;BME280;41907;47.848;9.000;2023-05-02T07:05:01;96151.97;;;11.30;100.00
56038;BME280;41907;47.848;9.000;2023-05-02T07:07:26;96151.84;;;11.35;100.00
56038;BME280;41907;47.848;9.000;2023-05-02T07:09:51;96146.34;;;11.31;100.00
56038;BME280;41907;47.848;9.000;2023-05-02T07:12:17;96150.22;;;11.47;100.00
56038;BME280;41907;47.848;9.000;2023-05-02T07:14:42;96158.00;;;11.57;100.00
56038;BME280;41907;47.848;9.000;2023-05-02T07:17:10;96159.75;;;11.62;100.00
56038;BME280;41907;47.848;9.000;2023-05-02T07:19:35;96158.38;;;11.65;100.00
56038;BME280;41907;47.848;9.000;2023-05-02T07:22:01;96163.50;;;11.75;100.00
56038;BME280;41907;47.848;9.000;2023-05-02T07:24:26;96168.13;;;11.83;100.00
56038;BME280;41907;47.848;9.000;2023-05-02T07:26:51;96159.81;;;11.84;100.00
56038;BME280;41907;47.848;9.000;2023-05-02T07:29:17;96165.81;;;11.90;100.00
56038;BME280;41907;47.848;9.000;2023-05-02T07:31:42;96166.91;;;11.89;100.00
56038;BME280;41907;47.848;9.000;2023-05-02T07:34:07;96167.38;;;11.91;100.00
56038;BME280;41907;47.848;9.000;2023-05-02T07:36:32;96167.88;;;11.93;100.00
56038;BME280;41907;47.848;9.000;2023-05-02T07:38:57;96171.53;;;11.97;100.00
56038;BME280;41907;47.848;9.000;2023-05-02T07:41:23;96167.78;;;11.98;100.00
56038;BME280;41907;47.848;9.000;2023-05-02T07:43:48;96174.66;;;11.99;100.00
56038;BME280;41907;47.848;9.000;2023-05-02T07:46:13;96172.66;;;12.05;100.00
56038;BME280;41907;47.848;9.000;2023-05-02T07:48:39;96176.13;;;12.05;100.00
56038;BME280;41907;47.848;9.000;2023-05-02T07:51:06;96181.19;;;12.07;100.00
56038;BME280;41907;47.848;9.000;2023-05-02T07:53:31;96183.41;;;12.13;100.00
56038;BME280;41907;47.848;9.000;2023-05-02T07:55:57;96181.97;;;12.07;100.00
56038;BME280;41907;47.848;9.000;2023-05-02T07:58:22;96180.75;;;12.13;100.00
56038;BME280;41907;47.848;9.000;2023-05-02T08:00:47;96181.66;;;12.09;100.00
56038;BME280;41907;47.848;9.000;2023-05-02T08:03:12;96190.16;;;12.11;100.00
56038;BME280;41907;47.848;9.000;2023-05-02T08:05:38;96185.28;;;12.13;100.00
56038;BME280;41907;47.848;9.000;2023-05-02T08:08:03;96189.84;;;12.12;100.00
56038;BME280;41907;47.848;9.000;2023-05-02T08:10:28;96191.75;;;12.12;100.00
56038;BME280;41907;47.848;9.000;2023-05-02T08:12:53;96203.03;;;12.09;100.00
56038;BME280;41907;47.848;9.000;2023-05-02T08:15:19;96204.50;;;12.15;100.00
56038;BME280;41907;47.848;9.000;2023-05-02T08:17:44;96202.03;;;12.27;100.00
56038;BME280;41907;47.848;9.000;2023-05-02T08:20:10;96204.16;;;12.39;100.00
56038;BME280;41907;47.848;9.000;2023-05-02T08:22:35;96206.34;;;12.37;100.00
56038;BME280;41907;47.848;9.000;2023-05-02T08:25:00;96211.34;;;12.29;100.00
56038;BME280;41907;47.848;9.000;2023-05-02T08:27:25;96206.69;;;12.13;100.00
56038;BME280;41907;47.848;9.000;2023-05-02T08:29:51;96213.19;;;12.20;100.00
56038;BME280;41907;47.848;9.000;2023-05-02T08:32:16;96211.19;;;12.26;100.00
56038;BME280;41907;47.848;9.000;2023-05-02T08:34:41;96205.50;;;12.27;100.00
56038;BME280;41907;47.848;9.000;2023-05-02T08:37:07;96211.53;;;12.33;100.00
56038;BME280;41907;47.848;9.000;2023-05-02T08:39:33;96210.81;;;12.19;100.00
56038;BME280;41907;47.848;9.000;2023-05-02T08:41:58;96218.50;;;12.43;100.00
56038;BME280;41907;47.848;9.000;2023-05-02T08:44:23;96206.66;;;12.35;100.00
56038;BME280;41907;47.848;9.000;2023-05-02T08:46:48;96213.72;;;12.31;100.00
56038;BME280;41907;47.848;9.000;2023-05-02T08:49:14;96224.75;;;12.38;100.00
56038;BME280;41907;47.848;9.000;2023-05-02T08:51:40;96209.78;;;12.59;100.00
56038;BME280;41907;47.848;9.000;2023-05-02T08:54:06;96220.13;;;12.83;100.00
56038;BME280;41907;47.848;9.000;2023-05-02T08:56:33;96217.31;;;12.97;100.00
56038;BME280;41907;47.848;9.000;2023-05-02T08:58:58;96213.75;;;13.10;100.00
56038;BME280;41907;47.848;9.000;2023-05-02T09:01:25;96214.44;;;13.41;100.00
56038;BME280;41907;47.848;9.000;2023-05-02T09:03:52;96213.03;;;13.78;100.00
56038;BME280;41907;47.848;9.000;2023-05-02T09:06:20;96211.09;;;14.31;100.00
56038;BME280;41907;47.848;9.000;2023-05-02T09:08:47;96218.03;;;14.49;97.27
56038;BME280;41907;47.848;9.000;2023-05-02T09:11:13;96220.38;;;14.59;95.58
56038;BME280;41907;47.848;9.000;2023-05-02T09:13:40;96228.13;;;15.28;92.21
56038;BME280;41907;47.848;9.000;2023-05-02T09:18:40;96224.28;;;17.35;85.51
56038;BME280;41907;47.848;9.000;2023-05-02T09:21:06;96219.03;;;17.91;79.76
56038;BME280;41907;47.848;9.000;2023-05-02T09:23:33;96224.75;;;18.17;75.31
56038;BME280;41907;47.848;9.000;2023-05-02T09:25:59;96235.38;;;16.85;78.28
56038;BME280;41907;47.848;9.000;2023-05-02T09:28:38;96231.41;;;16.05;81.41
56038;BME280;41907;47.848;9.000;2023-05-02T09:31:05;96235.31;;;15.74;82.16
56038;BME280;41907;47.848;9.000;2023-05-02T09:33:30;96235.50;;;16.56;86.28
56038;BME280;41907;47.848;9.000;2023-05-02T09:35:55;96230.91;;;17.14;80.59
56038;BME280;41907;47.848;9.000;2023-05-02T09:38:20;96230.75;;;17.83;75.85
56038;BME280;41907;47.848;9.000;2023-05-02T09:40:55;96232.69;;;18.10;74.65
56038;BME280;41907;47.848;9.000;2023-05-02T09:43:20;96232.94;;;17.17;73.78
56038;BME280;41907;47.848;9.000;2023-05-02T09:45:55;96237.59;;;17.56;74.15
56038;BME280;41907;47.848;9.000;2023-05-02T09:48:21;96224.50;;;18.22;77.39
56038;BME280;41907;47.848;9.000;2023-05-02T09:50:46;96229.13;;;18.22;71.20
56038;BME280;41907;47.848;9.000;2023-05-02T09:53:12;96229.69;;;18.28;75.15
56038;BME280;41907;47.848;9.000;2023-05-02T09:55:37;96232.31;;;18.12;73.69
56038;BME280;41907;47.848;9.000;2023-05-02T09:58:02;96222.84;;;18.18;71.34
56038;BME280;41907;47.848;9.000;2023-05-02T10:00:43;96224.75;;;19.05;71.55
56038;BME280;41907;47.848;9.000;2023-05-02T10:03:09;96228.31;;;19.24;71.99
56038;BME280;41907;47.848;9.000;2023-05-02T10:05:35;96223.13;;;19.86;69.27
56038;BME280;41907;47.848;9.000;2023-05-02T10:08:05;96219.72;;;19.38;64.70
56038;BME280;41907;47.848;9.000;2023-05-02T10:10:31;96228.56;;;19.51;63.91
56038;BME280;41907;47.848;9.000;2023-05-02T10:12:57;96235.88;;;18.44;69.24
56038;BME280;41907;47.848;9.000;2023-05-02T10:15:23;96223.34;;;18.36;68.44
56038;BME280;41907;47.848;9.000;2023-05-02T10:17:50;96226.78;;;18.20;70.23
56038;BME280;41907;47.848;9.000;2023-05-02T10:20:21;96224.63;;;17.86;76.90
56038;BME280;41907;47.848;9.000;2023-05-02T10:22:46;96230.56;;;17.64;77.92
56038;BME280;41907;47.848;9.000;2023-05-02T10:25:13;96231.31;;;17.40;80.22
56038;BME280;41907;47.848;9.000;2023-05-02T10:27:38;96231.34;;;17.03;82.96
56038;BME280;41907;47.848;9.000;2023-05-02T10:30:04;96231.53;;;16.74;91.35
56038;BME280;41907;47.848;9.000;2023-05-02T10:32:31;96230.31;;;16.38;96.25
56038;BME280;41907;47.848;9.000;2023-05-02T10:34:57;96230.56;;;16.13;96.17
56038;BME280;41907;47.848;9.000;2023-05-02T10:37:26;96236.03;;;15.83;99.18
56038;BME280;41907;47.848;9.000;2023-05-02T10:39:53;96233.91;;;15.68;99.85
56038;BME280;41907;47.848;9.000;2023-05-02T10:42:19;96239.03;;;15.61;100.00
56038;BME280;41907;47.848;9.000;2023-05-02T10:44:44;96239.38;;;15.51;100.00
56038;BME280;41907;47.848;9.000;2023-05-02T10:47:17;96244.84;;;15.34;100.00
56038;BME280;41907;47.848;9.000;2023-05-02T10:50:01;96232.88;;;14.93;100.00
56038;BME280;41907;47.848;9.000;2023-05-02T10:52:27;96237.84;;;14.74;100.00
56038;BME280;41907;47.848;9.000;2023-05-02T10:57:58;96244.28;;;14.00;100.00
56038;BME280;41907;47.848;9.000;2023-05-02T11:00:25;96243.97;;;13.85;100.00
56038;BME280;41907;47.848;9.000;2023-05-02T11:02:51;96250.44;;;13.75;100.00
56038;BME280;41907;47.848;9.000;2023-05-02T11:05:16;96240.81;;;13.65;100.00
56038;BME280;41907;47.848;9.000;2023-05-02T11:07:42;96245.69;;;13.55;100.00
56038;BME280;41907;47.848;9.000;2023-05-02T11:12:59;96243.78;;;13.38;100.00
56038;BME280;41907;47.848;9.000;2023-05-02T11:18:02;96242.00;;;13.33;100.00
56038;BME280;41907;47.848;9.000;2023-05-02T11:20:31;96242.66;;;13.30;100.00
56038;BME280;41907;47.848;9.000;2023-05-02T11:22:57;96242.59;;;13.22;100.00
56038;BME280;41907;47.848;9.000;2023-05-02T11:27:54;96240.09;;;13.17;100.00
56038;BME280;41907;47.848;9.000;2023-05-02T11:30:41;96249.63;;;13.00;100.00
56038;BME280;41907;47.848;9.000;2023-05-02T11:35:31;96229.44;;;13.03;100.00
56038;BME280;41907;47.848;9.000;2023-05-02T11:38:02;96228.84;;;13.06;100.00
56038;BME280;41907;47.848;9.000;2023-05-02T11:40:28;96236.09;;;13.05;100.00
56038;BME280;41907;47.848;9.000;2023-05-02T11:42:54;96232.31;;;13.07;100.00
56038;BME280;41907;47.848;9.000;2023-05-02T11:45:19;96230.56;;;13.02;100.00
56038;BME280;41907;47.848;9.000;2023-05-02T11:47:45;96233.41;;;13.05;100.00
56038;BME280;41907;47.848;9.000;2023-05-02T11:50:11;96233.59;;;13.09;100.00
56038;BME280;41907;47.848;9.000;2023-05-02T11:52:38;96233.72;;;13.13;100.00
56038;BME280;41907;47.848;9.000;2023-05-02T11:55:13;96240.56;;;13.19;100.00
56038;BME280;41907;47.848;9.000;2023-05-02T11:57:39;96233.94;;;13.16;100.00
56038;BME280;41907;47.848;9.000;2023-05-02T12:00:04;96233.47;;;13.23;100.00
56038;BME280;41907;47.848;9.000;2023-05-02T12:02:36;96233.84;;;13.47;100.00
56038;BME280;41907;47.848;9.000;2023-05-02T12:05:02;96231.50;;;13.63;100.00
56038;BME280;41907;47.848;9.000;2023-05-02T12:07:36;96237.81;;;13.67;100.00
56038;BME280;41907;47.848;9.000;2023-05-02T12:10:04;96233.09;;;13.81;100.00
56038;BME280;41907;47.848;9.000;2023-05-02T12:12:30;96240.00;;;14.42;100.00
56038;BME280;41907;47.848;9.000;2023-05-02T12:14:55;96232.78;;;14.81;100.00
56038;BME280;41907;47.848;9.000;2023-05-02T12:17:20;96233.72;;;15.14;100.00
56038;BME280;41907;47.848;9.000;2023-05-02T12:19:46;96231.72;;;15.32;100.00
56038;BME280;41907;47.848;9.000;2023-05-02T12:22:12;96231.03;;;15.44;100.00
56038;BME280;41907;47.848;9.000;2023-05-02T12:24:38;96235.31;;;15.74;100.00
56038;BME280;41907;47.848;9.000;2023-05-02T12:27:14;96235.00;;;15.67;100.00
56038;BME280;41907;47.848;9.000;2023-05-02T12:29:43;96229.13;;;15.94;100.00
56038;BME280;41907;47.848;9.000;2023-05-02T12:32:09;96224.91;;;16.06;96.01
56038;BME280;41907;47.848;9.000;2023-05-02T12:34:35;96225.88;;;16.22;98.59
56038;BME280;41907;47.848;9.000;2023-05-02T12:37:01;96232.56;;;16.49;96.19
56038;BME280;41907;47.848;9.000;2023-05-02T12:42:22;96224.94;;;17.20;94.77
56038;BME280;41907;47.848;9.000;2023-05-02T12:44:48;96222.38;;;17.36;92.03
56038;BME280;41907;47.848;9.000;2023-05-02T12:47:16;96220.88;;;17.51;92.67
56038;BME280;41907;47.848;9.000;2023-05-02T12:49:50;96214.94;;;17.45;86.06
56038;BME280;41907;47.848;9.000;2023-05-02T12:52:17;96220.41;;;17.61;86.77
56038;BME280;41907;47.848;9.000;2023-05-02T12:54:42;96215.75;;;17.85;90.04
56038;BME280;41907;47.848;9.000;2023-05-02T12:57:07;96226.31;;;17.26;87.22
56038;BME280;41907;47.848;9.000;2023-05-02T12:59:33;96219.00;;;17.27;78.58
56038;BME280;41907;47.848;9.000;2023-05-02T13:01:58;96220.78;;;16.86;83.22
56038;BME280;41907;47.848;9.000;2023-05-02T13:04:36;96219.66;;;16.87;83.46
56038;BME280;41907;47.848;9.000;2023-05-02T13:07:03;96216.50;;;16.73;79.60
56038;BME280;41907;47.848;9.000;2023-05-02T13:09:28;96219.94;;;16.61;83.03
56038;BME280;41907;47.848;9.000;2023-05-02T13:11:53;96214.31;;;16.21;78.15
56038;BME280;41907;47.848;9.000;2023-05-02T13:14:18;96206.88;;;15.85;81.26
56038;BME280;41907;47.848;9.000;2023-05-02T13:16:44;96204.84;;;16.03;80.07
56038;BME280;41907;47.848;9.000;2023-05-02T13:19:09;96204.41;;;16.46;77.06
56038;BME280;41907;47.848;9.000;2023-05-02T13:21:34;96219.34;;;16.56;78.52
56038;BME280;41907;47.848;9.000;2023-05-02T13:23:59;96214.50;;;16.16;77.93
56038;BME280;41907;47.848;9.000;2023-05-02T13:26:25;96215.53;;;16.24;79.52
56038;BME280;41907;47.848;9.000;2023-05-02T13:28:51;96216.63;;;16.44;84.12
56038;BME280;41907;47.848;9.000;2023-05-02T13:31:16;96218.00;;;16.50;83.73
56038;BME280;41907;47.848;9.000;2023-05-02T13:33:41;96209.16;;;15.95;86.90